Time;durP1;ratioP1;P1;durP2;ratioP2;P2;SDS_P1;SDS_P2;PMS_P1;PMS_P2;Temp;Humidity;BMP_temperature;BMP_pressure;BME280_temperature;BME280_humidity;BME280_pressure;Samples;Min_cycle;Max_cycle;Signal;HPM_P1;HPM_P2
2021/12/08 00:00:24;;;;;;;;;;;21.10;99.50;;;;;;5053900;28;19908;-80
2021/12/08 00:02:51;;;;;;;;;;;21.00;99.20;;;;;;5036757;28;19917;-75
2021/12/08 00:05:18;;;;;;;;;;;20.90;99.30;;;;;;5053995;28;20000;-80
2021/12/08 00:07:46;;;;;;;;;;;21.00;99.50;;;;;;5037245;28;20253;-75
2021/12/08 00:15:28;;;;;;;;;;;21.20;99.30;;;;;;5047165;28;19971;-81
2021/12/08 00:17:56;;;;;;;;;;;21.30;99.30;;;;;;5033736;28;20384;-78
2021/12/08 00:20:23;;;;;;;;;;;21.30;99.20;;;;;;5033765;28;19909;-74
2021/12/08 00:22:50;;;;;;;;;;;21.40;99.30;;;;;;5033734;28;19913;-78
2021/12/08 00:25:16;;;;;;;;;;;21.50;99.00;;;;;;5045968;28;20280;-74
2021/12/08 00:27:43;;;;;;;;;;;21.50;99.10;;;;;;5033903;28;19962;-76
2021/12/08 00:30:10;;;;;;;;;;;21.50;99.00;;;;;;5033897;28;19909;-81
2021/12/08 00:32:37;;;;;;;;;;;21.70;98.90;;;;;;5033622;28;20392;-79
2021/12/08 00:35:04;;;;;;;;;;;21.70;98.60;;;;;;5033560;28;19959;-77
2021/12/08 00:37:31;;;;;;;;;;;21.70;98.70;;;;;;5033654;28;19925;-79
2021/12/08 00:39:58;;;;;;;;;;;21.70;98.90;;;;;;5033586;28;19916;-79
2021/12/08 00:42:26;;;;;;;;;;;21.60;98.50;;;;;;5033987;28;19920;-76
2021/12/08 00:44:53;;;;;;;;;;;21.70;98.90;;;;;;5035624;28;19971;-79
2021/12/08 00:47:20;;;;;;;;;;;21.70;98.80;;;;;;5033781;28;19909;-76
2021/12/08 00:49:47;;;;;;;;;;;21.80;98.50;;;;;;5034054;28;19995;-81
2021/12/08 00:52:15;;;;;;;;;;;21.90;98.60;;;;;;5051710;23;20002;-63
2021/12/08 00:54:42;;;;;;;;;;;22.00;98.70;;;;;;5113662;28;20323;-62
2021/12/08 00:57:09;;;;;;;;;;;22.10;98.40;;;;;;5113573;28;20289;-62
2021/12/08 00:59:36;;;;;;;;;;;22.10;98.30;;;;;;5112994;28;19912;-62
2021/12/08 01:02:03;;;;;;;;;;;22.20;98.20;;;;;;5112558;28;19918;-62
2021/12/08 01:04:30;;;;;;;;;;;22.30;98.00;;;;;;5095258;28;20382;-61
2021/12/08 01:06:57;;;;;;;;;;;22.40;98.20;;;;;;5113528;28;19919;-65
2021/12/08 01:09:23;;;;;;;;;;;22.40;98.10;;;;;;5114251;28;19908;-62
2021/12/08 01:11:50;;;;;;;;;;;22.40;98.10;;;;;;5117785;28;19908;-64
2021/12/08 01:14:18;;;;;;;;;;;22.50;98.10;;;;;;5117740;28;19911;-63
2021/12/08 01:16:46;;;;;;;;;;;22.50;97.90;;;;;;5099431;28;19915;-62
2021/12/08 01:19:13;;;;;;;;;;;22.50;97.70;;;;;;5082304;28;19961;-63
2021/12/08 01:21:39;;;;;;;;;;;22.50;98.20;;;;;;5117505;28;19920;-62
2021/12/08 01:24:06;;;;;;;;;;;22.50;98.00;;;;;;5117584;28;19915;-64
2021/12/08 01:26:33;;;;;;;;;;;22.50;97.90;;;;;;5114318;28;19915;-64
2021/12/08 01:28:59;;;;;;;;;;;22.50;97.90;;;;;;5117312;28;19915;-63
2021/12/08 01:31:27;;;;;;;;;;;22.40;98.00;;;;;;5117197;28;20363;-63
2021/12/08 01:33:54;;;;;;;;;;;22.30;98.10;;;;;;5117163;28;19957;-63
2021/12/08 01:36:20;;;;;;;;;;;22.30;98.00;;;;;;5098871;28;19908;-62
2021/12/08 01:38:47;;;;;;;;;;;22.20;98.10;;;;;;5117075;28;19919;-62
2021/12/08 01:41:15;;;;;;;;;;;22.10;98.40;;;;;;5117109;28;19908;-63
2021/12/08 01:46:28;;;;;;;;;;;21.80;98.30;;;;;;5074889;28;19914;-63
2021/12/08 01:48:55;;;;;;;;;;;21.60;98.60;;;;;;5099056;28;19911;-65
2021/12/08 01:51:22;;;;;;;;;;;21.50;98.90;;;;;;5117056;28;20283;-62
2021/12/08 01:53:50;;;;;;;;;;;21.40;98.90;;;;;;5116808;28;19972;-63
2021/12/08 01:56:17;;;;;;;;;;;21.40;99.10;;;;;;5098816;28;19907;-64
2021/12/08 01:58:44;;;;;;;;;;;21.30;99.00;;;;;;5116796;28;19908;-62
2021/12/08 02:01:14;;;;;;;;;;;21.30;99.10;;;;;;5092769;28;19908;-65
2021/12/08 02:03:41;;;;;;;;;;;21.20;99.00;;;;;;5110817;28;19931;-62
2021/12/08 02:06:08;;;;;;;;;;;21.10;99.40;;;;;;5108917;28;19912;-62
2021/12/08 02:08:35;;;;;;;;;;;21.10;99.60;;;;;;5101318;28;19908;-62
2021/12/08 02:11:03;;;;;;;;;;;21.10;99.70;;;;;;5096039;28;20279;-63
2021/12/08 02:13:35;;;;;;;;;;;21.00;99.60;;;;;;5078094;28;19908;-63
2021/12/08 02:16:02;;;;;;;;;;;20.90;99.60;;;;;;5095847;28;20004;-63
2021/12/08 02:18:29;;;;;;;;;;;20.80;99.70;;;;;;5105201;28;19919;-63
2021/12/08 02:20:59;;;;;;;;;;;20.60;99.90;;;;;;5103086;28;19908;-63
2021/12/08 02:23:26;;;;;;;;;;;20.60;99.90;;;;;;5100879;28;20347;-63
2021/12/08 02:25:53;;;;;;;;;;;20.60;99.90;;;;;;5095887;28;20021;-64
2021/12/08 02:28:20;;;;;;;;;;;20.60;99.90;;;;;;5095876;28;19947;-63
2021/12/08 02:30:57;;;;;;;;;;;20.60;99.90;;;;;;5095766;28;19912;-63
2021/12/08 02:47:13;;;;;;;;;;;20.50;99.90;;;;;;5095458;28;20303;-63
2021/12/08 02:49:40;;;;;;;;;;;20.60;99.90;;;;;;5095433;28;19977;-63
2021/12/08 02:52:08;;;;;;;;;;;20.60;99.90;;;;;;5095172;28;19919;-64
2021/12/08 02:54:40;;;;;;;;;;;20.60;99.90;;;;;;5095376;28;19955;-65
2021/12/08 02:57:06;;;;;;;;;;;20.70;99.90;;;;;;5095372;28;19943;-64
2021/12/08 02:59:33;;;;;;;;;;;20.70;99.90;;;;;;5095273;28;19908;-64
2021/12/08 03:02:00;;;;;;;;;;;20.60;99.90;;;;;;5103001;28;20347;-63
2021/12/08 03:04:27;;;;;;;;;;;20.50;99.90;;;;;;5103092;28;20392;-64
2021/12/08 03:06:54;;;;;;;;;;;20.50;99.90;;;;;;5105813;28;19961;-64
2021/12/08 03:09:20;;;;;;;;;;;20.40;99.90;;;;;;5103265;28;20358;-65
2021/12/08 03:11:54;;;;;;;;;;;20.40;99.90;;;;;;5105185;28;19933;-64
2021/12/08 03:14:21;;;;;;;;;;;20.40;99.90;;;;;;5102871;28;19923;-64
2021/12/08 03:16:51;;;;;;;;;;;20.40;99.90;;;;;;5105886;28;19964;-64
2021/12/08 03:19:21;;;;;;;;;;;20.40;99.90;;;;;;5096736;28;19919;-65
2021/12/08 03:21:48;;;;;;;;;;;20.40;99.90;;;;;;5097331;28;19923;-64
2021/12/08 03:29:58;;;;;;;;;;;20.40;99.90;;;;;;5115063;28;20387;-64
2021/12/08 03:32:36;;;;;;;;;;;20.40;99.90;;;;;;5114774;28;19915;-64
2021/12/08 03:35:04;;;;;;;;;;;20.30;99.90;;;;;;5096730;28;19908;-64
2021/12/08 03:37:32;;;;;;;;;;;20.30;99.90;;;;;;5114957;28;19976;-64
2021/12/08 03:39:59;;;;;;;;;;;20.20;99.90;;;;;;5114728;28;19908;-64
2021/12/08 03:42:27;;;;;;;;;;;20.10;99.90;;;;;;5114557;28;19912;-63
2021/12/08 03:45:00;;;;;;;;;;;20.00;99.90;;;;;;5114629;28;19953;-64
2021/12/08 03:47:29;;;;;;;;;;;19.90;99.90;;;;;;5097658;28;20093;-64
2021/12/08 03:50:00;;;;;;;;;;;19.80;99.90;;;;;;5115138;28;19953;-64
2021/12/08 03:52:26;;;;;;;;;;;19.80;99.90;;;;;;5114488;28;19920;-64
2021/12/08 03:54:53;;;;;;;;;;;19.70;99.90;;;;;;5114404;28;20385;-64
2021/12/08 03:57:21;;;;;;;;;;;19.70;99.90;;;;;;5114370;28;19950;-64
2021/12/08 03:59:48;;;;;;;;;;;19.70;99.90;;;;;;5114388;28;19911;-64
2021/12/08 04:02:14;;;;;;;;;;;19.60;99.90;;;;;;5096386;28;20365;-64
2021/12/08 04:04:46;;;;;;;;;;;19.60;99.90;;;;;;5114311;28;19934;-64
2021/12/08 04:07:15;;;;;;;;;;;19.60;99.90;;;;;;5114319;28;20003;-64
2021/12/08 04:09:44;;;;;;;;;;;19.60;99.90;;;;;;5114214;28;19908;-67
2021/12/08 04:12:11;;;;;;;;;;;19.60;99.90;;;;;;5114228;28;19914;-65
2021/12/08 04:14:39;;;;;;;;;;;19.60;99.90;;;;;;5096241;28;20390;-64
2021/12/08 04:17:06;;;;;;;;;;;19.50;99.90;;;;;;5114105;28;19908;-65
2021/12/08 04:19:32;;;;;;;;;;;19.50;99.90;;;;;;5085182;28;19999;-65
2021/12/08 04:22:02;;;;;;;;;;;19.40;99.90;;;;;;5093715;28;19912;-65
2021/12/08 04:24:28;;;;;;;;;;;19.40;99.90;;;;;;5093690;28;20381;-64
2021/12/08 04:26:58;;;;;;;;;;;19.40;99.90;;;;;;5093647;28;19944;-64
2021/12/08 04:29:26;;;;;;;;;;;19.40;99.90;;;;;;5075690;28;19908;-66
2021/12/08 04:31:53;;;;;;;;;;;19.40;99.90;;;;;;5075647;28;19915;-64
2021/12/08 04:34:25;;;;;;;;;;;19.30;99.90;;;;;;5093577;28;19908;-64
2021/12/08 04:36:52;;;;;;;;;;;19.30;99.90;;;;;;5093552;28;19909;-65
2021/12/08 04:39:24;;;;;;;;;;;19.20;99.90;;;;;;5093423;28;19998;-65
2021/12/08 04:41:57;;;;;;;;;;;19.20;99.90;;;;;;5093401;28;19912;-65
2021/12/08 04:44:34;;;;;;;;;;;19.20;99.90;;;;;;5092800;28;19908;-65
2021/12/08 04:47:27;;;;;;;;;;;19.10;99.90;;;;;;5074711;28;20270;-65
2021/12/08 05:01:27;;;;;;;;;;;18.90;99.90;;;;;;5093225;28;19959;-64
2021/12/08 05:04:50;;;;;;;;;;;18.90;99.90;;;;;;5060097;28;19947;-64
2021/12/08 05:09:32;;;;;;;;;;;18.70;99.90;;;;;;5093270;28;19908;-62
2021/12/08 05:12:22;;;;;;;;;;;18.60;99.90;;;;;;5093169;28;19914;-62
2021/12/08 05:14:51;;;;;;;;;;;18.60;99.90;;;;;;5080021;28;19912;-62
2021/12/08 05:17:19;;;;;;;;;;;18.50;99.90;;;;;;5093047;28;19912;-63
2021/12/08 05:19:47;;;;;;;;;;;18.50;99.90;;;;;;5092908;28;19909;-63
2021/12/08 05:22:15;;;;;;;;;;;18.40;99.90;;;;;;5058111;28;20002;-63
2021/12/08 05:24:43;;;;;;;;;;;18.30;99.90;;;;;;5092926;28;20000;-62
2021/12/08 05:27:13;;;;;;;;;;;18.30;99.90;;;;;;5074730;28;20372;-62
2021/12/08 05:29:51;;;;;;;;;;;18.20;99.90;;;;;;5074959;28;19908;-62
2021/12/08 05:32:18;;;;;;;;;;;18.20;99.90;;;;;;5092764;28;20007;-63
2021/12/08 05:34:45;;;;;;;;;;;18.20;99.90;;;;;;5092889;28;19908;-62
2021/12/08 05:37:12;;;;;;;;;;;18.20;99.90;;;;;;5092882;28;19999;-62
2021/12/08 05:39:39;;;;;;;;;;;18.10;99.90;;;;;;5092764;28;19912;-63
2021/12/08 05:42:08;;;;;;;;;;;18.10;99.90;;;;;;5092875;28;19912;-63
2021/12/08 05:44:35;;;;;;;;;;;18.10;99.90;;;;;;5092849;28;19915;-62
2021/12/08 05:47:05;;;;;;;;;;;18.10;99.90;;;;;;5092720;28;19915;-62
2021/12/08 05:49:32;;;;;;;;;;;18.10;99.90;;;;;;5074893;28;20376;-62
2021/12/08 05:51:59;;;;;;;;;;;18.10;99.90;;;;;;5074637;28;19916;-62
2021/12/08 05:54:31;;;;;;;;;;;18.10;99.90;;;;;;5092641;28;19920;-62
2021/12/08 05:57:00;;;;;;;;;;;18.00;99.90;;;;;;5077655;28;19912;-63
2021/12/08 05:59:27;;;;;;;;;;;18.00;99.90;;;;;;5096346;28;19908;-62
2021/12/08 06:01:55;;;;;;;;;;;18.00;99.90;;;;;;5096379;28;20386;-63
2021/12/08 06:04:23;;;;;;;;;;;17.90;99.90;;;;;;5096490;28;20045;-64
2021/12/08 06:06:50;;;;;;;;;;;17.90;99.90;;;;;;5096447;28;20338;-63
2021/12/08 06:09:17;;;;;;;;;;;17.90;99.90;;;;;;5096394;28;19908;-62
2021/12/08 06:11:44;;;;;;;;;;;17.90;99.90;;;;;;5096327;28;19962;-70
2021/12/08 06:14:11;;;;;;;;;;;17.90;99.90;;;;;;5096124;28;19915;-63
2021/12/08 06:16:38;;;;;;;;;;;17.80;99.90;;;;;;5096153;28;19908;-63
2021/12/08 06:19:08;;;;;;;;;;;17.70;99.90;;;;;;5103914;28;19918;-63
2021/12/08 06:21:35;;;;;;;;;;;17.70;99.90;;;;;;5116519;28;19907;-63
2021/12/08 06:24:03;;;;;;;;;;;17.70;99.90;;;;;;5116811;28;19914;-63
2021/12/08 06:26:29;;;;;;;;;;;17.70;99.90;;;;;;5116711;28;20443;-63
2021/12/08 06:28:56;;;;;;;;;;;17.70;99.90;;;;;;5116414;28;19908;-66
2021/12/08 06:31:24;;;;;;;;;;;17.70;99.90;;;;;;5116398;28;19908;-62
2021/12/08 06:33:50;;;;;;;;;;;17.70;99.90;;;;;;5097838;28;19952;-65
2021/12/08 06:36:19;;;;;;;;;;;17.70;99.90;;;;;;5116260;28;19936;-65
2021/12/08 06:38:45;;;;;;;;;;;17.70;99.90;;;;;;5097778;28;20333;-64
2021/12/08 06:41:38;;;;;;;;;;;17.70;99.90;;;;;;5097772;28;19956;-63
2021/12/08 06:44:09;;;;;;;;;;;17.70;99.90;;;;;;5111507;28;19912;-62
2021/12/08 06:46:36;;;;;;;;;;;17.70;99.90;;;;;;5116080;28;19998;-62
2021/12/08 06:49:05;;;;;;;;;;;17.80;99.90;;;;;;5116003;28;20369;-63
2021/12/08 06:51:41;;;;;;;;;;;17.80;99.90;;;;;;5091718;28;19969;-62
2021/12/08 06:54:10;;;;;;;;;;;17.80;99.90;;;;;;5107468;28;20015;-65
2021/12/08 06:56:39;;;;;;;;;;;17.70;99.90;;;;;;5085154;28;19938;-62
2021/12/08 06:59:16;;;;;;;;;;;17.70;99.90;;;;;;5104606;28;20420;-61
2021/12/08 07:01:55;;;;;;;;;;;17.70;99.90;;;;;;5068626;28;20010;-62
2021/12/08 07:07:01;;;;;;;;;;;17.80;99.90;;;;;;5103465;28;19908;-61
2021/12/08 07:09:38;;;;;;;;;;;17.80;99.90;;;;;;5104072;28;20343;-62
2021/12/08 07:12:14;;;;;;;;;;;17.80;99.90;;;;;;5104240;28;19908;-62
2021/12/08 07:14:42;;;;;;;;;;;17.90;99.90;;;;;;5109149;28;19915;-62
2021/12/08 07:17:10;;;;;;;;;;;17.90;99.90;;;;;;5103914;28;19912;-61
2021/12/08 07:19:51;;;;;;;;;;;17.80;99.90;;;;;;5094858;28;19909;-61
2021/12/08 07:22:26;;;;;;;;;;;17.80;99.90;;;;;;5095060;28;20288;-61
2021/12/08 07:24:53;;;;;;;;;;;17.80;99.90;;;;;;5094832;28;19969;-61
2021/12/08 07:27:28;;;;;;;;;;;17.80;99.90;;;;;;5094798;28;19962;-61
2021/12/08 07:29:56;;;;;;;;;;;17.80;99.90;;;;;;5096901;28;20402;-61
2021/12/08 07:32:24;;;;;;;;;;;17.70;99.90;;;;;;5104646;28;19908;-61
2021/12/08 07:34:52;;;;;;;;;;;17.70;99.90;;;;;;5094421;28;19908;-62
2021/12/08 07:37:23;;;;;;;;;;;17.60;99.90;;;;;;5076551;28;19915;-62
2021/12/08 07:39:57;;;;;;;;;;;17.50;99.90;;;;;;5094405;28;20402;-63
2021/12/08 07:42:32;;;;;;;;;;;17.50;99.90;;;;;;5076221;28;20010;-61
2021/12/08 07:45:00;;;;;;;;;;;17.60;99.90;;;;;;5076337;28;19921;-61
2021/12/08 07:47:27;;;;;;;;;;;17.50;99.90;;;;;;5100549;28;19908;-61
2021/12/08 07:49:58;;;;;;;;;;;17.50;99.90;;;;;;5096666;28;19912;-61
2021/12/08 07:52:28;;;;;;;;;;;17.50;99.90;;;;;;5113285;28;20379;-62
2021/12/08 07:54:56;;;;;;;;;;;17.50;99.90;;;;;;5094348;28;19908;-61
2021/12/08 07:57:28;;;;;;;;;;;17.50;99.90;;;;;;5094302;28;20054;-61
2021/12/08 07:59:57;;;;;;;;;;;17.50;99.90;;;;;;5059381;28;20368;-61
2021/12/08 08:02:25;;;;;;;;;;;17.50;99.90;;;;;;5094080;28;19912;-61
2021/12/08 08:04:52;;;;;;;;;;;17.50;99.90;;;;;;5097493;28;20280;-61
2021/12/08 08:07:20;;;;;;;;;;;17.60;99.90;;;;;;5096146;28;20417;-61
2021/12/08 08:09:47;;;;;;;;;;;17.60;99.90;;;;;;5074128;28;19947;-61
2021/12/08 08:12:16;;;;;;;;;;;17.60;99.90;;;;;;5088018;28;20364;-61
2021/12/08 08:14:44;;;;;;;;;;;17.60;99.90;;;;;;5093887;28;19916;-61
2021/12/08 08:17:13;;;;;;;;;;;17.60;99.90;;;;;;5087155;28;20006;-61
2021/12/08 08:19:44;;;;;;;;;;;17.50;99.90;;;;;;5113274;28;19908;-61
2021/12/08 08:22:15;;;;;;;;;;;17.60;99.90;;;;;;5114114;28;20278;-61
2021/12/08 08:24:41;;;;;;;;;;;17.60;99.90;;;;;;5114104;28;19915;-62
2021/12/08 08:27:08;;;;;;;;;;;17.50;99.90;;;;;;5114368;28;19911;-62
2021/12/08 08:29:35;;;;;;;;;;;17.50;99.90;;;;;;5100530;28;19951;-61
2021/12/08 08:32:28;;;;;;;;;;;17.50;99.90;;;;;;5093785;28;19914;-62
2021/12/08 08:34:57;;;;;;;;;;;17.40;99.90;;;;;;5084895;28;19908;-61
2021/12/08 08:37:24;;;;;;;;;;;17.40;99.90;;;;;;5099810;28;19965;-62
2021/12/08 08:39:52;;;;;;;;;;;17.30;99.90;;;;;;5081284;28;20339;-61
2021/12/08 08:42:23;;;;;;;;;;;17.30;99.90;;;;;;5075179;28;20292;-63
2021/12/08 08:44:51;;;;;;;;;;;17.30;99.90;;;;;;5093399;28;20275;-62
2021/12/08 08:47:29;;;;;;;;;;;17.20;99.90;;;;;;5093447;28;19912;-63
2021/12/08 08:49:59;;;;;;;;;;;17.20;99.90;;;;;;5093294;28;20295;-65
2021/12/08 08:52:28;;;;;;;;;;;17.10;99.90;;;;;;5093135;28;19916;-62
2021/12/08 08:54:56;;;;;;;;;;;17.10;99.90;;;;;;5093095;28;19915;-62
2021/12/08 08:57:33;;;;;;;;;;;17.20;99.90;;;;;;5093299;28;19908;-64
2021/12/08 09:00:19;;;;;;;;;;;17.10;99.90;;;;;;5058606;28;19958;-61
2021/12/08 09:02:47;;;;;;;;;;;17.10;99.90;;;;;;5092800;28;19912;-66
2021/12/08 09:05:20;;;;;;;;;;;17.10;99.90;;;;;;5092990;28;19908;-61
2021/12/08 09:07:47;;;;;;;;;;;17.10;99.90;;;;;;5093239;28;19912;-62
2021/12/08 09:10:16;;;;;;;;;;;17.10;99.90;;;;;;5093162;28;19916;-61
2021/12/08 09:12:44;;;;;;;;;;;17.10;99.90;;;;;;5093197;28;19908;-62
2021/12/08 09:15:15;;;;;;;;;;;17.20;99.90;;;;;;5092908;28;19908;-60
2021/12/08 09:17:47;;;;;;;;;;;17.20;99.90;;;;;;5074934;28;19916;-61
2021/12/08 09:20:14;;;;;;;;;;;17.20;99.90;;;;;;5074879;28;19908;-60
2021/12/08 09:22:43;;;;;;;;;;;17.20;99.90;;;;;;5092873;28;20304;-61
2021/12/08 09:25:14;;;;;;;;;;;17.20;99.90;;;;;;5092811;28;19914;-61
2021/12/08 09:27:43;;;;;;;;;;;17.20;99.90;;;;;;5075052;28;19915;-62
2021/12/08 09:30:15;;;;;;;;;;;17.30;99.90;;;;;;5093068;28;19915;-62
2021/12/08 09:32:46;;;;;;;;;;;17.30;99.90;;;;;;5097072;28;20342;-61
2021/12/08 09:35:15;;;;;;;;;;;17.30;99.90;;;;;;5096966;28;19908;-62
2021/12/08 09:37:44;;;;;;;;;;;17.30;99.90;;;;;;5096975;28;20029;-62
2021/12/08 09:40:33;;;;;;;;;;;17.30;99.90;;;;;;5096887;28;19915;-62
2021/12/08 09:43:05;;;;;;;;;;;17.30;99.90;;;;;;5096835;28;19973;-62
2021/12/08 09:45:36;;;;;;;;;;;17.30;99.90;;;;;;5096778;28;19909;-61
2021/12/08 09:48:06;;;;;;;;;;;17.30;99.90;;;;;;5097982;28;20006;-62
2021/12/08 09:50:33;;;;;;;;;;;17.30;99.90;;;;;;5104415;28;19915;-61
2021/12/08 09:53:00;;;;;;;;;;;17.40;99.90;;;;;;5095272;28;20257;-61
2021/12/08 09:55:27;;;;;;;;;;;17.40;99.90;;;;;;5096596;28;19909;-61
2021/12/08 09:57:54;;;;;;;;;;;17.40;99.90;;;;;;5096872;28;19912;-63
2021/12/08 10:00:29;;;;;;;;;;;17.50;99.90;;;;;;5096472;28;20016;-66
2021/12/08 10:03:00;;;;;;;;;;;17.50;99.90;;;;;;5096484;28;19912;-64
2021/12/08 10:05:28;;;;;;;;;;;17.50;99.90;;;;;;5096347;28;19912;-63
2021/12/08 10:07:55;;;;;;;;;;;17.50;99.90;;;;;;5096455;28;19934;-62
2021/12/08 10:10:22;;;;;;;;;;;17.50;99.90;;;;;;5096377;28;19916;-62
2021/12/08 10:12:49;;;;;;;;;;;17.50;99.90;;;;;;5096338;28;20200;-62
2021/12/08 10:15:17;;;;;;;;;;;17.50;99.90;;;;;;5096325;28;20347;-61
2021/12/08 10:17:44;;;;;;;;;;;17.50;99.90;;;;;;5096296;28;19908;-61
2021/12/08 10:20:11;;;;;;;;;;;17.50;99.90;;;;;;5096033;28;19908;-61
2021/12/08 10:22:38;;;;;;;;;;;17.50;99.90;;;;;;5089672;28;19969;-62
2021/12/08 10:25:09;;;;;;;;;;;17.50;99.90;;;;;;5075739;28;19916;-61
2021/12/08 10:27:54;;;;;;;;;;;17.50;99.90;;;;;;5075867;28;19958;-61
2021/12/08 10:30:21;;;;;;;;;;;17.60;99.90;;;;;;5075787;28;19915;-61
2021/12/08 10:32:49;;;;;;;;;;;17.60;99.90;;;;;;5075724;28;19908;-62
2021/12/08 10:35:39;;;;;;;;;;;17.60;99.90;;;;;;5075598;28;19909;-62
2021/12/08 10:38:06;;;;;;;;;;;17.60;99.90;;;;;;5075530;28;20346;-65
2021/12/08 10:40:33;;;;;;;;;;;17.60;99.90;;;;;;5075532;28;19908;-65
2021/12/08 10:43:12;;;;;;;;;;;17.60;99.90;;;;;;5074425;28;19912;-62
2021/12/08 10:45:38;;;;;;;;;;;17.60;99.90;;;;;;5074239;28;19912;-61
2021/12/08 10:48:07;;;;;;;;;;;17.60;99.90;;;;;;5075520;28;20463;-62
2021/12/08 10:56:12;;;;;;;;;;;17.70;99.90;;;;;;5099954;28;19965;-63
2021/12/08 10:58:43;;;;;;;;;;;17.70;99.90;;;;;;5095480;28;20306;-62
2021/12/08 11:01:11;;;;;;;;;;;17.70;99.90;;;;;;5077050;28;19912;-60
2021/12/08 11:03:39;;;;;;;;;;;17.70;99.90;;;;;;5095266;28;19981;-60
2021/12/08 11:06:06;;;;;;;;;;;17.70;99.90;;;;;;5095649;28;19912;-60
2021/12/08 11:08:38;;;;;;;;;;;17.70;99.90;;;;;;5094819;28;20314;-62
2021/12/08 11:11:05;;;;;;;;;;;17.70;99.90;;;;;;5095447;28;20265;-60
2021/12/08 11:13:33;;;;;;;;;;;17.70;99.90;;;;;;5095169;28;19908;-61
2021/12/08 11:16:01;;;;;;;;;;;17.70;99.90;;;;;;5094994;28;19908;-61
2021/12/08 11:18:30;;;;;;;;;;;17.70;99.90;;;;;;5094924;28;19914;-61
2021/12/08 11:21:01;;;;;;;;;;;17.70;99.90;;;;;;5095009;28;19908;-61
2021/12/08 11:23:40;;;;;;;;;;;17.70;99.90;;;;;;5094815;28;20010;-60
2021/12/08 11:26:10;;;;;;;;;;;17.70;99.90;;;;;;5094977;28;20379;-61
2021/12/08 11:28:37;;;;;;;;;;;17.60;99.90;;;;;;5094878;28;19908;-61
2021/12/08 11:31:07;;;;;;;;;;;17.60;99.90;;;;;;5094712;28;20264;-64
2021/12/08 11:33:37;;;;;;;;;;;17.60;99.90;;;;;;5094780;28;19993;-62
2021/12/08 11:36:11;;;;;;;;;;;17.60;99.90;;;;;;5094813;28;19908;-62
2021/12/08 11:38:38;;;;;;;;;;;17.60;99.90;;;;;;5094604;28;19908;-61
2021/12/08 11:41:22;;;;;;;;;;;17.60;99.90;;;;;;5094501;28;19995;-61
2021/12/08 11:43:52;;;;;;;;;;;17.60;99.90;;;;;;5094729;28;19934;-64
2021/12/08 11:46:19;;;;;;;;;;;17.60;99.90;;;;;;5094581;28;19908;-61
2021/12/08 11:48:54;;;;;;;;;;;17.50;99.90;;;;;;5094913;28;19908;-62
2021/12/08 11:51:21;;;;;;;;;;;17.50;99.90;;;;;;5094388;28;19919;-61
2021/12/08 11:53:48;;;;;;;;;;;17.50;99.90;;;;;;5093914;28;20380;-61
2021/12/08 11:56:34;;;;;;;;;;;17.60;99.90;;;;;;5106625;28;20330;-61
2021/12/08 11:59:01;;;;;;;;;;;17.60;99.90;;;;;;5113196;28;19908;-61
2021/12/08 12:01:28;;;;;;;;;;;17.60;99.90;;;;;;5101007;28;19955;-62
2021/12/08 12:03:55;;;;;;;;;;;17.50;99.90;;;;;;5111921;28;19919;-61
2021/12/08 12:06:27;;;;;;;;;;;17.60;99.90;;;;;;5113814;28;19908;-61
2021/12/08 12:08:58;;;;;;;;;;;17.60;99.90;;;;;;5096178;28;19908;-60
2021/12/08 12:11:28;;;;;;;;;;;17.60;99.90;;;;;;5114181;28;19908;-60
2021/12/08 12:13:55;;;;;;;;;;;17.60;99.90;;;;;;5114095;28;19914;-61
2021/12/08 12:16:22;;;;;;;;;;;17.70;99.90;;;;;;5114018;28;19911;-60
2021/12/08 12:18:52;;;;;;;;;;;17.60;99.90;;;;;;5114069;28;19907;-60
2021/12/08 12:21:40;;;;;;;;;;;17.60;99.90;;;;;;5095884;28;19934;-60
2021/12/08 12:24:12;;;;;;;;;;;17.60;99.90;;;;;;5114207;28;20027;-60
2021/12/08 12:26:57;;;;;;;;;;;17.60;99.90;;;;;;5114095;28;20011;-60
2021/12/08 12:29:36;;;;;;;;;;;17.60;99.90;;;;;;5114062;28;20383;-60
2021/12/08 12:32:03;;;;;;;;;;;17.60;99.90;;;;;;5114094;28;19908;-60
2021/12/08 12:34:33;;;;;;;;;;;17.60;99.90;;;;;;5114020;28;19987;-61
2021/12/08 12:37:20;;;;;;;;;;;17.60;99.90;;;;;;5078851;28;20364;-60
2021/12/08 12:39:51;;;;;;;;;;;17.60;99.90;;;;;;5096291;28;19908;-59
2021/12/08 12:42:19;;;;;;;;;;;17.60;99.90;;;;;;5113665;28;19915;-60
2021/12/08 12:44:46;;;;;;;;;;;17.60;99.90;;;;;;5095545;28;20003;-60
2021/12/08 12:47:23;;;;;;;;;;;17.50;99.90;;;;;;5078729;28;19914;-60
2021/12/08 12:50:08;;;;;;;;;;;17.50;99.90;;;;;;5095724;28;19994;-61
2021/12/08 12:52:37;;;;;;;;;;;17.60;99.90;;;;;;5113593;28;20364;-60
2021/12/08 12:55:08;;;;;;;;;;;17.50;99.90;;;;;;5113654;28;20373;-61
2021/12/08 12:57:54;;;;;;;;;;;17.50;99.90;;;;;;5113609;28;19915;-60
2021/12/08 13:00:27;;;;;;;;;;;17.50;99.90;;;;;;5113147;28;19908;-60
2021/12/08 13:02:54;;;;;;;;;;;17.50;99.90;;;;;;5113461;28;19936;-61
2021/12/08 13:05:20;;;;;;;;;;;17.40;99.90;;;;;;5113041;28;19908;-60
2021/12/08 13:07:59;;;;;;;;;;;17.40;99.90;;;;;;5113653;28;19912;-61
2021/12/08 13:10:38;;;;;;;;;;;17.40;99.90;;;;;;5113632;28;19915;-60
2021/12/08 13:13:14;;;;;;;;;;;17.40;99.90;;;;;;5113531;28;19907;-60
2021/12/08 13:15:47;;;;;;;;;;;17.40;99.90;;;;;;5113469;28;19915;-60
2021/12/08 13:18:14;;;;;;;;;;;17.30;99.90;;;;;;5113476;28;19908;-61
2021/12/08 13:20:42;;;;;;;;;;;17.40;99.90;;;;;;5113362;28;19907;-61
2021/12/08 13:23:10;;;;;;;;;;;17.40;99.90;;;;;;5113375;28;20379;-60
2021/12/08 13:25:56;;;;;;;;;;;17.30;99.90;;;;;;5113312;28;19908;-61
2021/12/08 13:29:03;;;;;;;;;;;17.40;99.90;;;;;;5113420;28;20327;-60
2021/12/08 13:34:02;;;;;;;;;;;17.30;99.90;;;;;;5093004;28;19912;-61
2021/12/08 13:36:33;;;;;;;;;;;17.30;99.90;;;;;;5092924;28;19908;-61
2021/12/08 13:39:06;;;;;;;;;;;17.30;99.90;;;;;;5092845;28;19908;-61
2021/12/08 13:41:34;;;;;;;;;;;17.30;99.90;;;;;;5112515;28;20000;-61
2021/12/08 13:44:04;;;;;;;;;;;17.40;99.90;;;;;;5113191;28;19957;-61
2021/12/08 13:46:37;;;;;;;;;;;17.40;99.90;;;;;;5113179;28;20261;-60
2021/12/08 13:49:17;;;;;;;;;;;17.40;99.90;;;;;;5113254;28;19948;-60
2021/12/08 13:51:59;;;;;;;;;;;17.40;99.90;;;;;;5113187;28;19908;-60
2021/12/08 13:54:32;;;;;;;;;;;17.40;99.90;;;;;;5112959;28;19966;-61
2021/12/08 13:56:59;;;;;;;;;;;17.30;99.90;;;;;;5113163;28;19908;-61
2021/12/08 13:59:45;;;;;;;;;;;17.30;99.90;;;;;;5113023;28;19908;-60
2021/12/08 14:02:18;;;;;;;;;;;17.20;99.90;;;;;;5113015;28;20053;-61
2021/12/08 14:04:45;;;;;;;;;;;17.20;99.90;;;;;;5113030;28;20007;-61
2021/12/08 14:07:18;;;;;;;;;;;17.20;99.90;;;;;;5112995;28;19908;-60
2021/12/08 14:09:45;;;;;;;;;;;17.20;99.90;;;;;;5113060;28;19904;-61
2021/12/08 14:12:12;;;;;;;;;;;17.20;99.90;;;;;;5112999;28;19908;-60
2021/12/08 14:14:38;;;;;;;;;;;17.20;99.90;;;;;;5112996;28;19911;-60
2021/12/08 14:17:05;;;;;;;;;;;17.20;99.90;;;;;;5112975;28;19908;-61
2021/12/08 14:19:38;;;;;;;;;;;17.20;99.90;;;;;;5116459;28;20426;-60
2021/12/08 14:22:05;;;;;;;;;;;17.20;99.90;;;;;;5116454;28;19912;-60
2021/12/08 14:24:32;;;;;;;;;;;17.20;99.90;;;;;;5116463;28;19915;-61
2021/12/08 14:26:59;;;;;;;;;;;17.20;99.90;;;;;;5116518;28;19908;-60
2021/12/08 14:29:26;;;;;;;;;;;17.20;99.90;;;;;;5116455;28;19908;-60
2021/12/08 14:31:53;;;;;;;;;;;17.20;99.90;;;;;;5116353;28;19914;-60
2021/12/08 14:34:22;;;;;;;;;;;17.20;99.90;;;;;;5116245;28;19943;-60
2021/12/08 14:36:49;;;;;;;;;;;17.20;99.90;;;;;;5116315;28;20291;-60
2021/12/08 14:39:29;;;;;;;;;;;17.20;99.90;;;;;;5097791;28;19907;-60
2021/12/08 14:41:56;;;;;;;;;;;17.20;99.90;;;;;;5116185;28;19961;-60
2021/12/08 14:44:24;;;;;;;;;;;17.20;99.90;;;;;;5116072;28;19954;-61
2021/12/08 14:46:52;;;;;;;;;;;17.20;99.90;;;;;;5116053;28;19908;-61
2021/12/08 14:49:20;;;;;;;;;;;17.20;99.90;;;;;;5116049;28;19908;-61
2021/12/08 14:51:47;;;;;;;;;;;17.20;99.90;;;;;;5116004;28;20002;-61
2021/12/08 14:54:17;;;;;;;;;;;17.20;99.90;;;;;;5115717;28;19923;-61
2021/12/08 14:56:44;;;;;;;;;;;17.10;99.90;;;;;;5097796;28;19994;-60
2021/12/08 14:59:11;;;;;;;;;;;17.10;99.90;;;;;;5115735;28;19908;-60
2021/12/08 15:01:38;;;;;;;;;;;17.20;99.90;;;;;;5115804;28;19933;-61
2021/12/08 15:04:04;;;;;;;;;;;17.20;99.90;;;;;;5097509;28;19915;-61
2021/12/08 15:06:31;;;;;;;;;;;17.20;99.90;;;;;;5115762;28;19912;-60
2021/12/08 15:08:58;;;;;;;;;;;17.20;99.90;;;;;;5115656;28;19919;-61
2021/12/08 15:11:28;;;;;;;;;;;17.20;99.90;;;;;;5115661;28;20249;-61
2021/12/08 15:13:55;;;;;;;;;;;17.20;99.90;;;;;;5115531;28;19989;-60
2021/12/08 15:16:22;;;;;;;;;;;17.20;99.90;;;;;;5115364;28;19919;-61
2021/12/08 15:18:50;;;;;;;;;;;17.20;99.90;;;;;;5097060;28;19950;-60
2021/12/08 15:24:19;;;;;;;;;;;17.20;99.90;;;;;;5112063;28;19916;-61
2021/12/08 15:26:46;;;;;;;;;;;17.20;99.90;;;;;;5115556;28;20252;-61